sensor_id;sensor_type;location;lat;lon;timestamp;P1;durP1;ratioP1;P2;durP2;ratioP2
7213;SDS011;3648;50.614;13.830;2023-06-10T00:00:06;7.70;;;7.00;;
7213;SDS011;3648;50.614;13.830;2023-06-10T00:02:37;6.90;;;6.27;;
7213;SDS011;3648;50.614;13.830;2023-06-10T00:05:04;7.77;;;7.07;;
7213;SDS011;3648;50.614;13.830;2023-06-10T00:07:32;7.60;;;6.83;;
7213;SDS011;3648;50.614;13.830;2023-06-10T00:10:03;7.67;;;6.87;;
7213;SDS011;3648;50.614;13.830;2023-06-10T00:12:30;7.43;;;6.73;;
7213;SDS011;3648;50.614;13.830;2023-06-10T00:15:03;8.23;;;7.33;;
7213;SDS011;3648;50.614;13.830;2023-06-10T00:17:33;7.87;;;7.07;;
7213;SDS011;3648;50.614;13.830;2023-06-10T00:20:04;7.53;;;6.73;;
7213;SDS011;3648;50.614;13.830;2023-06-10T00:22:34;8.23;;;7.53;;
7213;SDS011;3648;50.614;13.830;2023-06-10T00:25:01;9.50;;;6.93;;
7213;SDS011;3648;50.614;13.830;2023-06-10T00:27:29;7.50;;;6.80;;
7213;SDS011;3648;50.614;13.830;2023-06-10T00:30:00;8.07;;;7.27;;
7213;SDS011;3648;50.614;13.830;2023-06-10T00:32:28;7.63;;;6.93;;
7213;SDS011;3648;50.614;13.830;2023-06-10T00:34:55;7.60;;;6.90;;
7213;SDS011;3648;50.614;13.830;2023-06-10T00:37:22;7.60;;;6.53;;
7213;SDS011;3648;50.614;13.830;2023-06-10T00:39:49;7.37;;;6.67;;
7213;SDS011;3648;50.614;13.830;2023-06-10T00:42:16;7.47;;;6.77;;
7213;SDS011;3648;50.614;13.830;2023-06-10T00:44:44;7.37;;;6.67;;
7213;SDS011;3648;50.614;13.830;2023-06-10T00:47:11;6.03;;;5.53;;
7213;SDS011;3648;50.614;13.830;2023-06-10T00:49:39;6.97;;;6.27;;
7213;SDS011;3648;50.614;13.830;2023-06-10T00:52:06;7.50;;;6.70;;
7213;SDS011;3648;50.614;13.830;2023-06-10T00:54:35;7.87;;;6.37;;
7213;SDS011;3648;50.614;13.830;2023-06-10T00:57:04;6.93;;;5.90;;
7213;SDS011;3648;50.614;13.830;2023-06-10T00:59:31;6.60;;;6.10;;
7213;SDS011;3648;50.614;13.830;2023-06-10T01:01:59;6.90;;;6.20;;
7213;SDS011;3648;50.614;13.830;2023-06-10T01:04:27;6.77;;;6.13;;
7213;SDS011;3648;50.614;13.830;2023-06-10T01:06:57;7.33;;;6.00;;
7213;SDS011;3648;50.614;13.830;2023-06-10T01:09:32;7.00;;;6.40;;
7213;SDS011;3648;50.614;13.830;2023-06-10T01:12:05;6.50;;;5.77;;
7213;SDS011;3648;50.614;13.830;2023-06-10T01:14:38;7.40;;;6.70;;
7213;SDS011;3648;50.614;13.830;2023-06-10T01:17:09;8.03;;;6.80;;
7213;SDS011;3648;50.614;13.830;2023-06-10T01:19:37;7.50;;;6.70;;
7213;SDS011;3648;50.614;13.830;2023-06-10T01:22:07;7.93;;;7.23;;
7213;SDS011;3648;50.614;13.830;2023-06-10T01:24:35;6.87;;;6.27;;
7213;SDS011;3648;50.614;13.830;2023-06-10T01:27:05;6.87;;;6.23;;
7213;SDS011;3648;50.614;13.830;2023-06-10T01:29:43;7.17;;;6.43;;
7213;SDS011;3648;50.614;13.830;2023-06-10T01:32:18;6.80;;;6.10;;
7213;SDS011;3648;50.614;13.830;2023-06-10T01:34:52;6.50;;;5.90;;
7213;SDS011;3648;50.614;13.830;2023-06-10T01:37:23;6.23;;;5.63;;
7213;SDS011;3648;50.614;13.830;2023-06-10T01:39:52;6.13;;;5.53;;
7213;SDS011;3648;50.614;13.830;2023-06-10T01:42:23;7.03;;;6.00;;
7213;SDS011;3648;50.614;13.830;2023-06-10T01:44:51;6.90;;;6.30;;
7213;SDS011;3648;50.614;13.830;2023-06-10T01:47:18;6.73;;;6.07;;
7213;SDS011;3648;50.614;13.830;2023-06-10T01:49:45;6.20;;;5.70;;
7213;SDS011;3648;50.614;13.830;2023-06-10T01:52:12;6.43;;;5.83;;
7213;SDS011;3648;50.614;13.830;2023-06-10T01:54:40;6.43;;;5.83;;
7213;SDS011;3648;50.614;13.830;2023-06-10T01:57:07;5.97;;;5.47;;
7213;SDS011;3648;50.614;13.830;2023-06-10T01:59:34;6.17;;;5.57;;
7213;SDS011;3648;50.614;13.830;2023-06-10T02:02:03;6.17;;;5.57;;
7213;SDS011;3648;50.614;13.830;2023-06-10T02:04:30;6.13;;;5.53;;
7213;SDS011;3648;50.614;13.830;2023-06-10T02:06:57;5.97;;;5.40;;
7213;SDS011;3648;50.614;13.830;2023-06-10T02:09:29;5.47;;;4.97;;
7213;SDS011;3648;50.614;13.830;2023-06-10T02:11:57;5.40;;;4.90;;
7213;SDS011;3648;50.614;13.830;2023-06-10T02:14:24;6.33;;;5.03;;
7213;SDS011;3648;50.614;13.830;2023-06-10T02:16:51;5.50;;;5.00;;
7213;SDS011;3648;50.614;13.830;2023-06-10T02:19:21;5.70;;;5.10;;
7213;SDS011;3648;50.614;13.830;2023-06-10T02:21:48;5.97;;;4.77;;
7213;SDS011;3648;50.614;13.830;2023-06-10T02:24:15;5.17;;;4.53;;
7213;SDS011;3648;50.614;13.830;2023-06-10T02:26:42;5.30;;;4.80;;
7213;SDS011;3648;50.614;13.830;2023-06-10T02:29:11;5.60;;;5.07;;
7213;SDS011;3648;50.614;13.830;2023-06-10T02:31:38;5.33;;;4.83;;
7213;SDS011;3648;50.614;13.830;2023-06-10T02:34:06;4.80;;;4.40;;
7213;SDS011;3648;50.614;13.830;2023-06-10T02:36:33;4.93;;;4.53;;
7213;SDS011;3648;50.614;13.830;2023-06-10T02:39:01;5.53;;;4.83;;
7213;SDS011;3648;50.614;13.830;2023-06-10T02:41:29;4.57;;;4.17;;
7213;SDS011;3648;50.614;13.830;2023-06-10T02:43:56;5.13;;;4.70;;
7213;SDS011;3648;50.614;13.830;2023-06-10T02:46:24;4.40;;;4.00;;
7213;SDS011;3648;50.614;13.830;2023-06-10T02:48:53;5.20;;;4.70;;
7213;SDS011;3648;50.614;13.830;2023-06-10T02:51:20;4.70;;;4.23;;
7213;SDS011;3648;50.614;13.830;2023-06-10T02:53:47;4.47;;;4.07;;
7213;SDS011;3648;50.614;13.830;2023-06-10T02:56:15;4.70;;;4.10;;
7213;SDS011;3648;50.614;13.830;2023-06-10T02:58:43;4.33;;;3.93;;
7213;SDS011;3648;50.614;13.830;2023-06-10T03:01:10;4.03;;;3.63;;
7213;SDS011;3648;50.614;13.830;2023-06-10T03:03:39;4.43;;;4.00;;
7213;SDS011;3648;50.614;13.830;2023-06-10T03:06:07;4.40;;;4.00;;
7213;SDS011;3648;50.614;13.830;2023-06-10T03:08:35;4.80;;;4.30;;
7213;SDS011;3648;50.614;13.830;2023-06-10T03:11:02;4.57;;;4.17;;
7213;SDS011;3648;50.614;13.830;2023-06-10T03:13:29;4.37;;;3.97;;
7213;SDS011;3648;50.614;13.830;2023-06-10T03:15:56;4.20;;;3.80;;
7213;SDS011;3648;50.614;13.830;2023-06-10T03:18:25;4.57;;;4.17;;
7213;SDS011;3648;50.614;13.830;2023-06-10T03:20:54;4.90;;;4.43;;
7213;SDS011;3648;50.614;13.830;2023-06-10T03:23:21;5.70;;;4.40;;
7213;SDS011;3648;50.614;13.830;2023-06-10T03:25:49;4.60;;;4.20;;
7213;SDS011;3648;50.614;13.830;2023-06-10T03:28:16;4.30;;;3.87;;
7213;SDS011;3648;50.614;13.830;2023-06-10T03:30:43;4.70;;;4.27;;
7213;SDS011;3648;50.614;13.830;2023-06-10T03:33:10;4.70;;;4.30;;
7213;SDS011;3648;50.614;13.830;2023-06-10T03:35:37;4.67;;;4.30;;
7213;SDS011;3648;50.614;13.830;2023-06-10T03:38:05;4.40;;;4.10;;
7213;SDS011;3648;50.614;13.830;2023-06-10T03:40:32;5.03;;;4.17;;
7213;SDS011;3648;50.614;13.830;2023-06-10T03:43:00;5.00;;;4.50;;
7213;SDS011;3648;50.614;13.830;2023-06-10T03:45:27;4.40;;;4.00;;
7213;SDS011;3648;50.614;13.830;2023-06-10T03:47:54;4.23;;;3.83;;
7213;SDS011;3648;50.614;13.830;2023-06-10T03:50:22;4.17;;;3.87;;
7213;SDS011;3648;50.614;13.830;2023-06-10T03:52:49;4.00;;;3.70;;
7213;SDS011;3648;50.614;13.830;2023-06-10T03:55:18;4.73;;;4.23;;
7213;SDS011;3648;50.614;13.830;2023-06-10T03:57:47;5.03;;;4.53;;
7213;SDS011;3648;50.614;13.830;2023-06-10T04:00:14;4.40;;;4.00;;
7213;SDS011;3648;50.614;13.830;2023-06-10T04:02:43;5.07;;;3.90;;
7213;SDS011;3648;50.614;13.830;2023-06-10T04:05:13;4.00;;;3.60;;
7213;SDS011;3648;50.614;13.830;2023-06-10T04:07:41;4.73;;;4.33;;
7213;SDS011;3648;50.614;13.830;2023-06-10T04:10:09;4.27;;;3.90;;
7213;SDS011;3648;50.614;13.830;2023-06-10T04:12:38;4.57;;;3.97;;
7213;SDS011;3648;50.614;13.830;2023-06-10T04:15:06;3.70;;;3.40;;
7213;SDS011;3648;50.614;13.830;2023-06-10T04:17:34;4.53;;;4.13;;
7213;SDS011;3648;50.614;13.830;2023-06-10T04:20:01;4.30;;;3.90;;
7213;SDS011;3648;50.614;13.830;2023-06-10T04:22:31;4.20;;;3.80;;
7213;SDS011;3648;50.614;13.830;2023-06-10T04:24:58;4.07;;;3.67;;
7213;SDS011;3648;50.614;13.830;2023-06-10T04:27:25;4.23;;;3.80;;
7213;SDS011;3648;50.614;13.830;2023-06-10T04:29:54;3.97;;;3.57;;
7213;SDS011;3648;50.614;13.830;2023-06-10T04:32:21;4.20;;;3.80;;
7213;SDS011;3648;50.614;13.830;2023-06-10T04:34:48;4.10;;;3.80;;
7213;SDS011;3648;50.614;13.830;2023-06-10T04:37:15;4.10;;;3.80;;
7213;SDS011;3648;50.614;13.830;2023-06-10T04:39:42;4.20;;;3.80;;
7213;SDS011;3648;50.614;13.830;2023-06-10T04:42:10;4.17;;;3.77;;
7213;SDS011;3648;50.614;13.830;2023-06-10T04:44:37;4.40;;;3.57;;
7213;SDS011;3648;50.614;13.830;2023-06-10T04:47:05;3.60;;;3.30;;
7213;SDS011;3648;50.614;13.830;2023-06-10T04:49:32;4.30;;;3.90;;
7213;SDS011;3648;50.614;13.830;2023-06-10T04:52:00;4.00;;;3.70;;
7213;SDS011;3648;50.614;13.830;2023-06-10T04:54:29;4.67;;;4.07;;
7213;SDS011;3648;50.614;13.830;2023-06-10T04:56:57;4.83;;;4.43;;
7213;SDS011;3648;50.614;13.830;2023-06-10T04:59:24;4.37;;;3.97;;
7213;SDS011;3648;50.614;13.830;2023-06-10T05:01:51;5.40;;;4.90;;
7213;SDS011;3648;50.614;13.830;2023-06-10T05:04:21;5.10;;;4.03;;
7213;SDS011;3648;50.614;13.830;2023-06-10T05:06:48;4.60;;;4.20;;
7213;SDS011;3648;50.614;13.830;2023-06-10T05:09:15;4.63;;;4.10;;
7213;SDS011;3648;50.614;13.830;2023-06-10T05:11:42;4.13;;;3.77;;
7213;SDS011;3648;50.614;13.830;2023-06-10T05:14:10;4.30;;;3.90;;
7213;SDS011;3648;50.614;13.830;2023-06-10T05:16:37;5.13;;;4.73;;
7213;SDS011;3648;50.614;13.830;2023-06-10T05:19:04;4.47;;;4.07;;
7213;SDS011;3648;50.614;13.830;2023-06-10T05:21:32;4.13;;;3.83;;
7213;SDS011;3648;50.614;13.830;2023-06-10T05:23:59;4.20;;;3.80;;
7213;SDS011;3648;50.614;13.830;2023-06-10T05:26:27;4.20;;;3.87;;
7213;SDS011;3648;50.614;13.830;2023-06-10T05:28:56;4.40;;;4.00;;
7213;SDS011;3648;50.614;13.830;2023-06-10T05:31:23;5.07;;;4.40;;
7213;SDS011;3648;50.614;13.830;2023-06-10T05:33:50;4.33;;;3.93;;
7213;SDS011;3648;50.614;13.830;2023-06-10T05:36:17;4.37;;;3.97;;
7213;SDS011;3648;50.614;13.830;2023-06-10T05:38:46;4.77;;;4.37;;
7213;SDS011;3648;50.614;13.830;2023-06-10T05:41:13;4.60;;;4.20;;
7213;SDS011;3648;50.614;13.830;2023-06-10T05:43:40;4.70;;;4.30;;
7213;SDS011;3648;50.614;13.830;2023-06-10T05:46:07;3.97;;;3.67;;
7213;SDS011;3648;50.614;13.830;2023-06-10T05:48:34;5.00;;;4.60;;
7213;SDS011;3648;50.614;13.830;2023-06-10T05:51:01;4.63;;;4.20;;
7213;SDS011;3648;50.614;13.830;2023-06-10T05:53:28;4.87;;;4.47;;
7213;SDS011;3648;50.614;13.830;2023-06-10T05:55:56;4.73;;;4.13;;
7213;SDS011;3648;50.614;13.830;2023-06-10T05:58:24;5.17;;;4.67;;
7213;SDS011;3648;50.614;13.830;2023-06-10T06:00:51;4.60;;;4.20;;
7213;SDS011;3648;50.614;13.830;2023-06-10T06:03:18;4.73;;;4.27;;
7213;SDS011;3648;50.614;13.830;2023-06-10T06:05:45;4.30;;;3.90;;
7213;SDS011;3648;50.614;13.830;2023-06-10T06:08:12;4.80;;;4.40;;
7213;SDS011;3648;50.614;13.830;2023-06-10T06:10:42;4.57;;;4.17;;
7213;SDS011;3648;50.614;13.830;2023-06-10T06:13:11;4.33;;;4.03;;
7213;SDS011;3648;50.614;13.830;2023-06-10T06:15:38;4.87;;;4.47;;
7213;SDS011;3648;50.614;13.830;2023-06-10T06:18:05;4.70;;;4.30;;
7213;SDS011;3648;50.614;13.830;2023-06-10T06:20:33;6.20;;;4.30;;
7213;SDS011;3648;50.614;13.830;2023-06-10T06:23:00;5.20;;;4.20;;
7213;SDS011;3648;50.614;13.830;2023-06-10T06:25:27;4.73;;;4.37;;
7213;SDS011;3648;50.614;13.830;2023-06-10T06:27:58;5.10;;;4.60;;
7213;SDS011;3648;50.614;13.830;2023-06-10T06:30:26;4.80;;;4.40;;
7213;SDS011;3648;50.614;13.830;2023-06-10T06:32:54;5.33;;;4.83;;
7213;SDS011;3648;50.614;13.830;2023-06-10T06:35:21;4.60;;;4.20;;
7213;SDS011;3648;50.614;13.830;2023-06-10T06:37:48;5.07;;;4.67;;
7213;SDS011;3648;50.614;13.830;2023-06-10T06:40:15;5.40;;;4.40;;
7213;SDS011;3648;50.614;13.830;2023-06-10T06:42:42;6.17;;;4.93;;
7213;SDS011;3648;50.614;13.830;2023-06-10T06:45:09;6.07;;;4.47;;
7213;SDS011;3648;50.614;13.830;2023-06-10T06:47:38;5.80;;;4.77;;
7213;SDS011;3648;50.614;13.830;2023-06-10T06:50:05;4.83;;;4.40;;
7213;SDS011;3648;50.614;13.830;2023-06-10T06:52:32;5.57;;;5.07;;
7213;SDS011;3648;50.614;13.830;2023-06-10T06:54:59;5.07;;;4.67;;
7213;SDS011;3648;50.614;13.830;2023-06-10T06:57:27;5.20;;;4.80;;
7213;SDS011;3648;50.614;13.830;2023-06-10T06:59:54;5.17;;;4.67;;
7213;SDS011;3648;50.614;13.830;2023-06-10T07:02:21;5.60;;;5.10;;
7213;SDS011;3648;50.614;13.830;2023-06-10T07:04:49;5.63;;;5.13;;
7213;SDS011;3648;50.614;13.830;2023-06-10T07:07:16;5.63;;;5.13;;
7213;SDS011;3648;50.614;13.830;2023-06-10T07:09:43;5.03;;;4.63;;
7213;SDS011;3648;50.614;13.830;2023-06-10T07:12:10;5.47;;;4.90;;
7213;SDS011;3648;50.614;13.830;2023-06-10T07:14:37;5.73;;;5.10;;
7213;SDS011;3648;50.614;13.830;2023-06-10T07:17:04;5.50;;;5.03;;
7213;SDS011;3648;50.614;13.830;2023-06-10T07:19:31;5.13;;;4.63;;
7213;SDS011;3648;50.614;13.830;2023-06-10T07:22:00;5.33;;;4.83;;
7213;SDS011;3648;50.614;13.830;2023-06-10T07:24:27;4.93;;;4.50;;
7213;SDS011;3648;50.614;13.830;2023-06-10T07:26:54;5.00;;;4.07;;
7213;SDS011;3648;50.614;13.830;2023-06-10T07:29:21;5.67;;;5.17;;
7213;SDS011;3648;50.614;13.830;2023-06-10T07:31:48;6.00;;;5.50;;
7213;SDS011;3648;50.614;13.830;2023-06-10T07:34:15;5.70;;;4.60;;
7213;SDS011;3648;50.614;13.830;2023-06-10T07:36:42;5.70;;;5.20;;
7213;SDS011;3648;50.614;13.830;2023-06-10T07:39:10;5.50;;;5.00;;
7213;SDS011;3648;50.614;13.830;2023-06-10T07:41:39;5.43;;;4.93;;
7213;SDS011;3648;50.614;13.830;2023-06-10T07:44:22;5.77;;;5.27;;
7213;SDS011;3648;50.614;13.830;2023-06-10T07:46:52;5.87;;;5.33;;
7213;SDS011;3648;50.614;13.830;2023-06-10T07:49:26;6.23;;;5.63;;
7213;SDS011;3648;50.614;13.830;2023-06-10T07:51:54;5.53;;;5.13;;
7213;SDS011;3648;50.614;13.830;2023-06-10T07:54:23;6.60;;;6.00;;
7213;SDS011;3648;50.614;13.830;2023-06-10T07:56:51;5.10;;;4.60;;
7213;SDS011;3648;50.614;13.830;2023-06-10T07:59:18;6.53;;;5.60;;
7213;SDS011;3648;50.614;13.830;2023-06-10T08:01:45;5.70;;;5.20;;
7213;SDS011;3648;50.614;13.830;2023-06-10T08:04:12;6.90;;;5.77;;
7213;SDS011;3648;50.614;13.830;2023-06-10T08:06:39;5.97;;;5.20;;
7213;SDS011;3648;50.614;13.830;2023-06-10T08:09:06;5.90;;;5.40;;
7213;SDS011;3648;50.614;13.830;2023-06-10T08:11:35;5.50;;;5.00;;
7213;SDS011;3648;50.614;13.830;2023-06-10T08:14:02;6.43;;;5.80;;
7213;SDS011;3648;50.614;13.830;2023-06-10T08:16:28;6.50;;;5.90;;
7213;SDS011;3648;50.614;13.830;2023-06-10T08:18:55;6.20;;;5.57;;
7213;SDS011;3648;50.614;13.830;2023-06-10T08:21:22;6.17;;;5.67;;
7213;SDS011;3648;50.614;13.830;2023-06-10T08:23:52;6.70;;;5.97;;
7213;SDS011;3648;50.614;13.830;2023-06-10T08:26:19;5.70;;;5.20;;
7213;SDS011;3648;50.614;13.830;2023-06-10T08:28:47;6.07;;;5.53;;
7213;SDS011;3648;50.614;13.830;2023-06-10T08:31:14;6.47;;;5.83;;
7213;SDS011;3648;50.614;13.830;2023-06-10T08:33:41;6.07;;;5.57;;
7213;SDS011;3648;50.614;13.830;2023-06-10T08:36:08;6.30;;;5.73;;
7213;SDS011;3648;50.614;13.830;2023-06-10T08:38:35;6.13;;;5.63;;
7213;SDS011;3648;50.614;13.830;2023-06-10T08:41:03;7.60;;;6.90;;
7213;SDS011;3648;50.614;13.830;2023-06-10T08:43:33;5.90;;;5.40;;
7213;SDS011;3648;50.614;13.830;2023-06-10T08:46:05;6.23;;;5.63;;
7213;SDS011;3648;50.614;13.830;2023-06-10T08:48:34;6.83;;;6.00;;
7213;SDS011;3648;50.614;13.830;2023-06-10T08:51:05;5.57;;;5.07;;
7213;SDS011;3648;50.614;13.830;2023-06-10T08:53:33;5.90;;;5.37;;
7213;SDS011;3648;50.614;13.830;2023-06-10T08:56:02;6.13;;;5.53;;
7213;SDS011;3648;50.614;13.830;2023-06-10T08:58:32;6.07;;;5.43;;
7213;SDS011;3648;50.614;13.830;2023-06-10T09:01:06;6.00;;;5.43;;
7213;SDS011;3648;50.614;13.830;2023-06-10T09:03:34;6.30;;;5.70;;
7213;SDS011;3648;50.614;13.830;2023-06-10T09:06:03;6.70;;;6.00;;
7213;SDS011;3648;50.614;13.830;2023-06-10T09:08:33;6.43;;;5.80;;
7213;SDS011;3648;50.614;13.830;2023-06-10T09:11:00;5.87;;;5.20;;
7213;SDS011;3648;50.614;13.830;2023-06-10T09:13:27;5.87;;;5.00;;
7213;SDS011;3648;50.614;13.830;2023-06-10T09:15:55;6.57;;;5.20;;
7213;SDS011;3648;50.614;13.830;2023-06-10T09:18:26;5.43;;;4.93;;
7213;SDS011;3648;50.614;13.830;2023-06-10T09:20:54;5.47;;;4.97;;
7213;SDS011;3648;50.614;13.830;2023-06-10T09:23:21;5.10;;;4.70;;
7213;SDS011;3648;50.614;13.830;2023-06-10T09:25:55;5.43;;;4.93;;
7213;SDS011;3648;50.614;13.830;2023-06-10T09:28:23;4.67;;;4.27;;
7213;SDS011;3648;50.614;13.830;2023-06-10T09:31:00;5.27;;;4.53;;
7213;SDS011;3648;50.614;13.830;2023-06-10T09:33:30;5.10;;;4.60;;
7213;SDS011;3648;50.614;13.830;2023-06-10T09:35:57;5.03;;;4.60;;
7213;SDS011;3648;50.614;13.830;2023-06-10T09:38:29;5.97;;;5.47;;
7213;SDS011;3648;50.614;13.830;2023-06-10T09:40:57;5.53;;;4.97;;
7213;SDS011;3648;50.614;13.830;2023-06-10T09:43:38;6.00;;;5.20;;
7213;SDS011;3648;50.614;13.830;2023-06-10T09:46:06;8.07;;;5.23;;
7213;SDS011;3648;50.614;13.830;2023-06-10T09:48:40;6.43;;;4.83;;
7213;SDS011;3648;50.614;13.830;2023-06-10T09:51:09;5.40;;;4.90;;
7213;SDS011;3648;50.614;13.830;2023-06-10T09:53:37;5.63;;;5.00;;
7213;SDS011;3648;50.614;13.830;2023-06-10T09:56:05;6.03;;;5.43;;
7213;SDS011;3648;50.614;13.830;2023-06-10T09:58:36;6.00;;;5.43;;
7213;SDS011;3648;50.614;13.830;2023-06-10T10:01:06;5.97;;;5.43;;
7213;SDS011;3648;50.614;13.830;2023-06-10T10:03:44;6.40;;;5.80;;
7213;SDS011;3648;50.614;13.830;2023-06-10T10:06:12;5.87;;;5.37;;
7213;SDS011;3648;50.614;13.830;2023-06-10T10:08:39;5.70;;;5.20;;
7213;SDS011;3648;50.614;13.830;2023-06-10T10:11:06;5.70;;;4.63;;
7213;SDS011;3648;50.614;13.830;2023-06-10T10:13:34;7.07;;;5.83;;
7213;SDS011;3648;50.614;13.830;2023-06-10T10:16:03;6.67;;;5.50;;
7213;SDS011;3648;50.614;13.830;2023-06-10T10:18:37;5.90;;;5.40;;
7213;SDS011;3648;50.614;13.830;2023-06-10T10:21:11;5.80;;;5.27;;
7213;SDS011;3648;50.614;13.830;2023-06-10T10:23:40;6.10;;;5.10;;
7213;SDS011;3648;50.614;13.830;2023-06-10T10:26:15;6.80;;;5.70;;
7213;SDS011;3648;50.614;13.830;2023-06-10T10:28:45;6.33;;;5.83;;
7213;SDS011;3648;50.614;13.830;2023-06-10T10:31:19;6.03;;;5.57;;
7213;SDS011;3648;50.614;13.830;2023-06-10T10:33:50;6.30;;;5.70;;
7213;SDS011;3648;50.614;13.830;2023-06-10T10:36:23;6.83;;;6.23;;
7213;SDS011;3648;50.614;13.830;2023-06-10T10:38:50;6.57;;;5.97;;
7213;SDS011;3648;50.614;13.830;2023-06-10T10:41:18;6.53;;;5.93;;
7213;SDS011;3648;50.614;13.830;2023-06-10T10:43:46;6.43;;;5.90;;
7213;SDS011;3648;50.614;13.830;2023-06-10T10:46:14;6.47;;;5.87;;
7213;SDS011;3648;50.614;13.830;2023-06-10T10:48:43;6.87;;;6.20;;
7213;SDS011;3648;50.614;13.830;2023-06-10T10:51:12;6.40;;;5.80;;
7213;SDS011;3648;50.614;13.830;2023-06-10T10:53:43;6.47;;;5.83;;
7213;SDS011;3648;50.614;13.830;2023-06-10T10:56:12;6.73;;;6.13;;
7213;SDS011;3648;50.614;13.830;2023-06-10T10:58:40;6.67;;;6.07;;
7213;SDS011;3648;50.614;13.830;2023-06-10T11:01:11;7.37;;;5.57;;
7213;SDS011;3648;50.614;13.830;2023-06-10T11:03:42;7.10;;;6.40;;
7213;SDS011;3648;50.614;13.830;2023-06-10T11:06:12;6.97;;;6.47;;
7213;SDS011;3648;50.614;13.830;2023-06-10T11:08:52;6.87;;;6.27;;
7213;SDS011;3648;50.614;13.830;2023-06-10T11:11:20;6.43;;;5.93;;
7213;SDS011;3648;50.614;13.830;2023-06-10T11:14:06;7.07;;;6.47;;
7213;SDS011;3648;50.614;13.830;2023-06-10T11:16:40;6.73;;;6.17;;
7213;SDS011;3648;50.614;13.830;2023-06-10T11:19:09;7.40;;;6.70;;
7213;SDS011;3648;50.614;13.830;2023-06-10T11:21:57;6.93;;;6.33;;
7213;SDS011;3648;50.614;13.830;2023-06-10T11:24:28;6.67;;;6.07;;
7213;SDS011;3648;50.614;13.830;2023-06-10T11:29:54;7.40;;;6.50;;
7213;SDS011;3648;50.614;13.830;2023-06-10T11:32:22;7.27;;;6.67;;
7213;SDS011;3648;50.614;13.830;2023-06-10T11:34:51;5.90;;;5.40;;
7213;SDS011;3648;50.614;13.830;2023-06-10T11:37:19;6.10;;;5.57;;
7213;SDS011;3648;50.614;13.830;2023-06-10T11:39:49;6.00;;;5.40;;
7213;SDS011;3648;50.614;13.830;2023-06-10T11:42:19;6.10;;;5.50;;
7213;SDS011;3648;50.614;13.830;2023-06-10T11:44:49;7.10;;;5.30;;
7213;SDS011;3648;50.614;13.830;2023-06-10T11:47:17;6.23;;;5.57;;
7213;SDS011;3648;50.614;13.830;2023-06-10T11:49:45;5.40;;;4.90;;
7213;SDS011;3648;50.614;13.830;2023-06-10T11:52:12;5.43;;;4.93;;
7213;SDS011;3648;50.614;13.830;2023-06-10T11:54:39;5.27;;;4.80;;
7213;SDS011;3648;50.614;13.830;2023-06-10T11:57:08;5.33;;;4.70;;
7213;SDS011;3648;50.614;13.830;2023-06-10T11:59:35;5.70;;;5.20;;
7213;SDS011;3648;50.614;13.830;2023-06-10T12:02:03;4.67;;;4.27;;
7213;SDS011;3648;50.614;13.830;2023-06-10T12:04:31;5.20;;;4.70;;
7213;SDS011;3648;50.614;13.830;2023-06-10T12:06:58;5.27;;;4.77;;
7213;SDS011;3648;50.614;13.830;2023-06-10T12:09:25;5.13;;;4.70;;
7213;SDS011;3648;50.614;13.830;2023-06-10T12:11:54;5.27;;;4.77;;
7213;SDS011;3648;50.614;13.830;2023-06-10T12:17:22;5.50;;;5.00;;
7213;SDS011;3648;50.614;13.830;2023-06-10T12:19:50;5.40;;;4.90;;
7213;SDS011;3648;50.614;13.830;2023-06-10T12:22:19;5.53;;;5.03;;
7213;SDS011;3648;50.614;13.830;2023-06-10T12:24:57;5.13;;;4.63;;
7213;SDS011;3648;50.614;13.830;2023-06-10T12:27:26;6.37;;;5.10;;
7213;SDS011;3648;50.614;13.830;2023-06-10T12:29:56;4.60;;;4.30;;
7213;SDS011;3648;50.614;13.830;2023-06-10T12:32:34;5.50;;;5.00;;
7213;SDS011;3648;50.614;13.830;2023-06-10T12:35:02;5.33;;;4.83;;
7213;SDS011;3648;50.614;13.830;2023-06-10T12:37:31;5.03;;;4.53;;
7213;SDS011;3648;50.614;13.830;2023-06-10T12:39:59;5.30;;;4.80;;
7213;SDS011;3648;50.614;13.830;2023-06-10T12:42:28;4.70;;;4.30;;
7213;SDS011;3648;50.614;13.830;2023-06-10T12:44:56;5.30;;;4.90;;
7213;SDS011;3648;50.614;13.830;2023-06-10T12:47:29;5.33;;;4.83;;
7213;SDS011;3648;50.614;13.830;2023-06-10T12:50:00;5.07;;;4.10;;
7213;SDS011;3648;50.614;13.830;2023-06-10T12:52:28;5.07;;;4.60;;
7213;SDS011;3648;50.614;13.830;2023-06-10T12:54:56;5.77;;;5.17;;
7213;SDS011;3648;50.614;13.830;2023-06-10T12:57:24;5.27;;;4.80;;
7213;SDS011;3648;50.614;13.830;2023-06-10T12:59:51;5.03;;;4.50;;
7213;SDS011;3648;50.614;13.830;2023-06-10T13:02:20;5.13;;;4.63;;
7213;SDS011;3648;50.614;13.830;2023-06-10T13:04:49;4.93;;;4.43;;
7213;SDS011;3648;50.614;13.830;2023-06-10T13:07:16;4.60;;;4.20;;
7213;SDS011;3648;50.614;13.830;2023-06-10T13:09:43;4.37;;;4.03;;
7213;SDS011;3648;50.614;13.830;2023-06-10T13:12:14;5.40;;;4.50;;
7213;SDS011;3648;50.614;13.830;2023-06-10T13:14:42;5.13;;;4.63;;
7213;SDS011;3648;50.614;13.830;2023-06-10T13:17:10;5.80;;;4.63;;
7213;SDS011;3648;50.614;13.830;2023-06-10T13:19:40;5.17;;;4.73;;
7213;SDS011;3648;50.614;13.830;2023-06-10T13:22:07;4.93;;;4.53;;
7213;SDS011;3648;50.614;13.830;2023-06-10T13:24:34;5.23;;;4.77;;
7213;SDS011;3648;50.614;13.830;2023-06-10T13:27:01;4.73;;;4.13;;
7213;SDS011;3648;50.614;13.830;2023-06-10T13:29:28;5.40;;;4.40;;
7213;SDS011;3648;50.614;13.830;2023-06-10T13:31:55;5.57;;;4.40;;
7213;SDS011;3648;50.614;13.830;2023-06-10T13:34:23;4.63;;;4.10;;
7213;SDS011;3648;50.614;13.830;2023-06-10T13:36:51;5.23;;;4.10;;
7213;SDS011;3648;50.614;13.830;2023-06-10T13:39:18;4.57;;;4.17;;
7213;SDS011;3648;50.614;13.830;2023-06-10T13:41:45;4.67;;;4.27;;
7213;SDS011;3648;50.614;13.830;2023-06-10T13:44:12;4.80;;;4.40;;
7213;SDS011;3648;50.614;13.830;2023-06-10T13:46:39;3.97;;;3.67;;
7213;SDS011;3648;50.614;13.830;2023-06-10T13:49:06;5.33;;;4.23;;
7213;SDS011;3648;50.614;13.830;2023-06-10T13:51:32;5.17;;;4.50;;
7213;SDS011;3648;50.614;13.830;2023-06-10T13:54:01;4.27;;;3.90;;
7213;SDS011;3648;50.614;13.830;2023-06-10T13:56:29;4.53;;;4.13;;
7213;SDS011;3648;50.614;13.830;2023-06-10T13:58:56;4.13;;;3.80;;
7213;SDS011;3648;50.614;13.830;2023-06-10T14:01:23;5.30;;;3.97;;
7213;SDS011;3648;50.614;13.830;2023-06-10T14:03:50;4.30;;;3.90;;
7213;SDS011;3648;50.614;13.830;2023-06-10T14:06:17;4.40;;;3.97;;
7213;SDS011;3648;50.614;13.830;2023-06-10T14:08:44;4.53;;;3.80;;
7213;SDS011;3648;50.614;13.830;2023-06-10T14:11:12;5.03;;;4.47;;
7213;SDS011;3648;50.614;13.830;2023-06-10T14:13:39;4.03;;;3.70;;
7213;SDS011;3648;50.614;13.830;2023-06-10T14:16:06;4.50;;;4.10;;
7213;SDS011;3648;50.614;13.830;2023-06-10T14:18:33;6.37;;;4.53;;
7213;SDS011;3648;50.614;13.830;2023-06-10T14:21:00;4.23;;;3.87;;
7213;SDS011;3648;50.614;13.830;2023-06-10T14:23:27;5.20;;;4.80;;
7213;SDS011;3648;50.614;13.830;2023-06-10T14:25:54;10.03;;;4.77;;
7213;SDS011;3648;50.614;13.830;2023-06-10T14:28:23;5.13;;;4.63;;
7213;SDS011;3648;50.614;13.830;2023-06-10T14:30:51;7.00;;;4.80;;
7213;SDS011;3648;50.614;13.830;2023-06-10T14:33:22;5.20;;;4.77;;
7213;SDS011;3648;50.614;13.830;2023-06-10T14:35:49;5.97;;;4.83;;
7213;SDS011;3648;50.614;13.830;2023-06-10T14:38:16;6.03;;;5.40;;
7213;SDS011;3648;50.614;13.830;2023-06-10T14:40:44;4.67;;;4.27;;
7213;SDS011;3648;50.614;13.830;2023-06-10T14:43:11;5.00;;;4.47;;
7213;SDS011;3648;50.614;13.830;2023-06-10T14:45:39;5.50;;;4.70;;
7213;SDS011;3648;50.614;13.830;2023-06-10T14:48:07;4.80;;;4.40;;
7213;SDS011;3648;50.614;13.830;2023-06-10T14:50:34;4.80;;;4.40;;
7213;SDS011;3648;50.614;13.830;2023-06-10T14:53:01;5.83;;;5.10;;
7213;SDS011;3648;50.614;13.830;2023-06-10T14:55:28;5.67;;;4.70;;
7213;SDS011;3648;50.614;13.830;2023-06-10T14:57:55;5.97;;;5.20;;
7213;SDS011;3648;50.614;13.830;2023-06-10T15:00:23;4.93;;;4.53;;
7213;SDS011;3648;50.614;13.830;2023-06-10T15:02:52;5.20;;;4.63;;
7213;SDS011;3648;50.614;13.830;2023-06-10T15:05:20;4.90;;;4.50;;
7213;SDS011;3648;50.614;13.830;2023-06-10T15:07:47;5.17;;;4.77;;
7213;SDS011;3648;50.614;13.830;2023-06-10T15:10:14;5.90;;;5.30;;
7213;SDS011;3648;50.614;13.830;2023-06-10T15:12:43;5.37;;;4.73;;